createdAt,value
2023-02-26T00:01:25.580Z,5.53
2023-02-26T00:03:54.356Z,6.37
2023-02-26T00:08:48.391Z,5.70
2023-02-26T00:11:16.509Z,5.93
2023-02-26T00:13:45.053Z,6.60
2023-02-26T00:16:18.174Z,6.85
2023-02-26T00:18:45.373Z,7.00
2023-02-26T00:21:18.387Z,6.30
2023-02-26T00:23:45.513Z,6.23
2023-02-26T00:26:12.728Z,7.13
2023-02-26T00:28:40.309Z,8.07
2023-02-26T00:31:08.169Z,7.43
2023-02-26T00:33:35.411Z,7.77
2023-02-26T00:36:26.081Z,6.73
2023-02-26T00:39:25.347Z,6.27
2023-02-26T00:41:52.867Z,7.53
2023-02-26T00:44:20.043Z,9.87
2023-02-26T00:46:58.039Z,6.37
2023-02-26T00:49:55.608Z,5.73
2023-02-26T00:52:44.267Z,5.33
2023-02-26T00:55:11.336Z,5.97
2023-02-26T00:57:38.492Z,5.93
2023-02-26T01:00:08.105Z,5.47
2023-02-26T01:02:36.586Z,6.83
2023-02-26T01:05:04.292Z,6.10
2023-02-26T01:07:49.042Z,7.50
2023-02-26T01:10:16.650Z,6.93
2023-02-26T01:12:44.322Z,5.90
2023-02-26T01:15:11.674Z,5.93
2023-02-26T01:17:52.945Z,6.53
2023-02-26T01:20:23.595Z,6.70
2023-02-26T01:23:01.539Z,5.10
2023-02-26T01:26:14.912Z,6.13
2023-02-26T01:28:42.470Z,5.03
2023-02-26T01:31:19.396Z,5.80
2023-02-26T01:33:53.949Z,5.13
2023-02-26T01:36:24.224Z,5.30
2023-02-26T01:39:02.683Z,5.33
2023-02-26T01:42:14.013Z,5.70
2023-02-26T01:45:12.333Z,6.57
2023-02-26T01:47:54.359Z,6.40
2023-02-26T01:50:25.847Z,5.50
2023-02-26T01:53:16.588Z,5.40
2023-02-26T01:55:49.465Z,5.53
2023-02-26T01:58:17.308Z,5.10
2023-02-26T02:00:44.662Z,6.60
2023-02-26T02:03:11.849Z,6.20
2023-02-26T02:05:47.483Z,5.83
2023-02-26T02:08:14.591Z,6.03
2023-02-26T02:10:45.775Z,5.47
2023-02-26T02:13:34.338Z,5.80
2023-02-26T02:21:23.065Z,6.20
2023-02-26T02:24:03.049Z,6.70
2023-02-26T02:26:42.696Z,5.53
2023-02-26T02:29:26.978Z,5.23
2023-02-26T02:32:10.057Z,5.67
2023-02-26T02:34:53.492Z,5.60
2023-02-26T02:37:30.589Z,6.97
2023-02-26T02:40:17.707Z,5.77
2023-02-26T02:42:52.423Z,5.70
2023-02-26T02:45:50.012Z,5.70
2023-02-26T02:48:31.632Z,5.00
2023-02-26T02:51:04.305Z,4.77
2023-02-26T02:53:37.823Z,6.37
2023-02-26T02:56:10.911Z,6.10
2023-02-26T02:58:44.325Z,5.97
2023-02-26T03:01:14.616Z,5.50
2023-02-26T03:03:57.158Z,6.00
2023-02-26T03:06:24.779Z,6.23
2023-02-26T03:08:53.248Z,5.73
2023-02-26T03:11:20.818Z,6.10
2023-02-26T03:13:49.586Z,6.13
2023-02-26T03:16:54.661Z,5.40
2023-02-26T03:19:31.215Z,5.47
2023-02-26T03:22:31.892Z,5.53
2023-02-26T03:25:13.512Z,5.70
2023-02-26T03:27:52.855Z,5.53
2023-02-26T03:30:33.047Z,5.50
2023-02-26T03:33:24.128Z,7.00
2023-02-26T03:35:57.216Z,8.27
2023-02-26T03:38:53.008Z,6.53
2023-02-26T03:41:33.474Z,6.80
2023-02-26T03:44:13.360Z,6.40
2023-02-26T03:46:46.132Z,6.17
2023-02-26T03:49:18.349Z,5.83
2023-02-26T03:51:46.856Z,6.77
2023-02-26T03:54:21.387Z,4.93
2023-02-26T03:56:49.719Z,5.30
2023-02-26T03:59:17.970Z,4.22
2023-02-26T04:02:08.719Z,5.07
2023-02-26T04:04:48.391Z,5.33
2023-02-26T04:07:17.680Z,5.97
2023-02-26T04:09:47.532Z,5.75
2023-02-26T04:12:15.257Z,5.40
2023-02-26T04:14:42.133Z,5.80
2023-02-26T04:17:09.316Z,5.13
2023-02-26T04:19:36.215Z,4.90
2023-02-26T04:22:03.561Z,5.13
2023-02-26T04:24:30.693Z,5.37
2023-02-26T04:26:57.860Z,5.10
2023-02-26T04:29:24.838Z,4.93
2023-02-26T04:31:52.011Z,5.03
2023-02-26T04:34:18.916Z,5.50
2023-02-26T04:36:46.118Z,4.93
2023-02-26T04:39:13.101Z,4.27
2023-02-26T04:41:40.337Z,5.10
2023-02-26T04:44:07.439Z,4.60
2023-02-26T04:46:34.679Z,4.83
2023-02-26T04:49:01.630Z,4.37
2023-02-26T04:51:28.811Z,4.50
2023-02-26T04:53:55.766Z,4.00
2023-02-26T04:56:23.152Z,4.20
2023-02-26T04:58:50.280Z,4.63
2023-02-26T05:01:17.528Z,3.93
2023-02-26T05:03:44.444Z,4.53
2023-02-26T05:06:11.629Z,6.80
2023-02-26T05:08:42.291Z,4.83
2023-02-26T05:11:10.904Z,4.50
2023-02-26T05:13:38.412Z,4.45
2023-02-26T05:16:07.278Z,4.47
2023-02-26T05:18:34.336Z,4.00
2023-02-26T05:21:01.548Z,4.50
2023-02-26T05:23:28.976Z,4.33
2023-02-26T05:25:57.413Z,4.40
2023-02-26T05:28:25.321Z,4.47
2023-02-26T05:30:53.085Z,4.38
2023-02-26T05:33:20.042Z,4.47
2023-02-26T05:35:48.297Z,4.37
2023-02-26T05:38:15.334Z,4.30
2023-02-26T05:40:42.498Z,4.07
2023-02-26T05:43:09.474Z,4.87
2023-02-26T05:45:36.639Z,4.43
2023-02-26T05:48:04.018Z,4.03
2023-02-26T05:50:31.272Z,4.67
2023-02-26T05:52:58.289Z,4.87
2023-02-26T05:55:25.471Z,4.67
2023-02-26T05:57:52.345Z,4.73
2023-02-26T06:00:19.808Z,4.40
2023-02-26T06:02:46.704Z,4.60
2023-02-26T06:05:14.155Z,5.30
2023-02-26T06:07:41.015Z,5.40
2023-02-26T06:10:08.986Z,13.73
2023-02-26T06:12:36.550Z,13.20
2023-02-26T06:15:05.379Z,27.00
2023-02-26T06:17:33.317Z,39.55
2023-02-26T06:20:00.629Z,23.92
2023-02-26T06:22:27.581Z,20.00
2023-02-26T06:24:55.755Z,7.13
2023-02-26T06:27:23.483Z,5.27
2023-02-26T06:29:50.663Z,7.00
2023-02-26T06:32:17.814Z,6.70
2023-02-26T06:34:45.102Z,5.07
2023-02-26T06:37:12.007Z,4.70
2023-02-26T06:39:39.168Z,5.60
2023-02-26T06:42:06.197Z,5.30
2023-02-26T06:44:33.402Z,7.87
2023-02-26T06:47:00.343Z,4.67
2023-02-26T06:49:27.739Z,5.23
2023-02-26T06:51:54.651Z,5.00
2023-02-26T06:54:21.838Z,5.17
2023-02-26T06:56:48.767Z,4.90
2023-02-26T06:59:16.032Z,4.83
2023-02-26T07:01:43.076Z,5.23
2023-02-26T07:04:10.563Z,5.30
2023-02-26T07:06:37.559Z,5.53
2023-02-26T07:09:04.788Z,5.60
2023-02-26T07:11:31.721Z,6.93
2023-02-26T07:13:58.886Z,6.43
2023-02-26T07:16:26.021Z,7.00
2023-02-26T07:18:53.420Z,6.63
2023-02-26T07:21:20.304Z,5.67
2023-02-26T07:23:47.604Z,5.93
2023-02-26T07:26:15.443Z,5.87
2023-02-26T07:28:42.563Z,4.93
2023-02-26T07:31:09.633Z,7.03
2023-02-26T07:33:38.571Z,4.63
2023-02-26T07:36:06.367Z,6.55
2023-02-26T07:38:33.580Z,5.80
2023-02-26T07:41:00.490Z,7.07
2023-02-26T07:43:27.724Z,7.13
2023-02-26T07:45:54.753Z,6.70
2023-02-26T07:48:21.946Z,5.07
2023-02-26T07:50:52.225Z,5.33
2023-02-26T07:53:19.956Z,5.57
2023-02-26T07:55:47.535Z,5.47
2023-02-26T07:58:14.462Z,5.10
2023-02-26T08:00:41.618Z,5.83
2023-02-26T08:03:08.444Z,7.37
2023-02-26T08:05:36.068Z,5.33
2023-02-26T08:08:03.420Z,6.70
2023-02-26T08:10:31.068Z,15.27
2023-02-26T08:12:57.956Z,11.50
2023-02-26T08:15:25.140Z,23.93
2023-02-26T08:17:53.707Z,23.93
2023-02-26T08:20:21.208Z,12.43
2023-02-26T08:22:48.117Z,9.87
2023-02-26T08:25:15.906Z,6.70
2023-02-26T08:27:43.076Z,17.43
2023-02-26T08:30:11.133Z,8.13
2023-02-26T08:32:39.968Z,6.83
2023-02-26T08:35:07.460Z,7.77
2023-02-26T08:37:34.321Z,6.40
2023-02-26T08:40:01.610Z,6.70
2023-02-26T08:42:28.505Z,9.27
2023-02-26T08:44:55.736Z,13.93
2023-02-26T08:47:28.783Z,9.73
2023-02-26T08:49:56.843Z,6.80
2023-02-26T08:52:23.755Z,6.93
2023-02-26T08:54:51.317Z,8.20
2023-02-26T08:57:18.285Z,8.10
2023-02-26T08:59:45.751Z,6.80
2023-02-26T09:02:14.240Z,6.87
2023-02-26T09:04:41.419Z,7.85
2023-02-26T09:07:08.294Z,6.30
2023-02-26T09:09:35.524Z,6.53
2023-02-26T09:12:02.540Z,8.80
2023-02-26T09:14:29.817Z,9.23
2023-02-26T09:16:56.691Z,6.77
2023-02-26T09:19:23.856Z,5.03
2023-02-26T09:21:50.793Z,6.53
2023-02-26T09:24:18.041Z,6.67
2023-02-26T09:26:44.943Z,6.43
2023-02-26T09:29:13.398Z,6.13
2023-02-26T09:31:40.759Z,5.65
2023-02-26T09:34:09.886Z,6.17
2023-02-26T09:36:37.669Z,7.57
2023-02-26T09:39:05.022Z,9.23
2023-02-26T09:41:36.576Z,9.93
2023-02-26T09:44:06.342Z,9.80
2023-02-26T09:46:48.353Z,23.97
2023-02-26T09:49:41.395Z,22.60
2023-02-26T09:52:26.414Z,12.27
2023-02-26T09:54:58.720Z,27.17
2023-02-26T09:57:34.953Z,22.87
2023-02-26T10:00:08.094Z,12.60
2023-02-26T10:02:47.992Z,6.97
2023-02-26T10:05:26.346Z,9.43
2023-02-26T10:08:02.286Z,13.70
2023-02-26T10:10:48.720Z,9.30
2023-02-26T10:13:35.417Z,13.97
2023-02-26T10:16:26.338Z,14.93
2023-02-26T10:19:01.134Z,8.80
2023-02-26T10:21:36.837Z,13.70
2023-02-26T10:24:13.889Z,10.63
2023-02-26T10:26:54.401Z,10.43
2023-02-26T10:29:44.597Z,14.83
2023-02-26T10:32:23.424Z,34.20
2023-02-26T10:35:16.149Z,28.83
2023-02-26T10:37:56.271Z,8.03
2023-02-26T10:40:46.825Z,8.43
2023-02-26T10:43:25.537Z,5.03
2023-02-26T10:46:11.372Z,6.55
2023-02-26T10:48:59.811Z,5.40
2023-02-26T10:51:35.382Z,4.93
2023-02-26T10:54:19.566Z,5.23
2023-02-26T10:56:46.668Z,5.40
2023-02-26T10:59:15.222Z,5.00
2023-02-26T11:01:44.431Z,5.57
2023-02-26T11:04:18.247Z,5.23
2023-02-26T11:07:00.515Z,5.10
2023-02-26T11:09:38.393Z,6.70
2023-02-26T11:12:06.676Z,5.80
2023-02-26T11:14:34.732Z,8.40
2023-02-26T11:17:06.836Z,5.80
2023-02-26T11:19:38.315Z,8.60
2023-02-26T11:22:09.860Z,8.10
2023-02-26T11:24:41.551Z,8.43
2023-02-26T11:27:24.863Z,8.63
2023-02-26T11:29:59.853Z,9.03
2023-02-26T11:32:37.134Z,14.03
2023-02-26T11:35:08.898Z,12.03
2023-02-26T11:37:39.473Z,7.77
2023-02-26T11:40:16.142Z,11.13
2023-02-26T11:42:54.059Z,13.60
2023-02-26T11:45:22.224Z,12.23
2023-02-26T11:47:59.472Z,11.63
2023-02-26T11:50:28.496Z,11.27
2023-02-26T11:53:04.147Z,15.93
2023-02-26T11:55:44.632Z,11.30
2023-02-26T11:58:23.517Z,13.60
2023-02-26T12:03:24.592Z,9.07
2023-02-26T12:05:53.384Z,16.27
2023-02-26T12:08:20.278Z,9.45
2023-02-26T12:11:19.744Z,11.50
2023-02-26T12:14:35.058Z,12.43
2023-02-26T12:17:15.084Z,9.30
2023-02-26T12:20:07.901Z,8.53
2023-02-26T12:22:55.308Z,8.53
2023-02-26T12:25:31.468Z,10.07
2023-02-26T12:28:32.936Z,10.07
2023-02-26T12:31:29.155Z,18.23
2023-02-26T12:34:17.165Z,22.60
2023-02-26T12:37:08.724Z,14.63
2023-02-26T12:40:01.793Z,8.43
2023-02-26T12:42:55.141Z,15.07
2023-02-26T12:45:37.537Z,10.87
2023-02-26T12:48:41.920Z,12.87
2023-02-26T12:51:30.372Z,8.07
2023-02-26T12:54:26.376Z,7.93
2023-02-26T12:57:12.185Z,7.73
2023-02-26T12:59:48.057Z,8.03
2023-02-26T13:02:36.590Z,7.60
2023-02-26T13:05:25.181Z,7.18
2023-02-26T13:08:02.785Z,6.72
2023-02-26T13:10:52.009Z,6.27
2023-02-26T13:13:28.001Z,5.73
2023-02-26T13:16:03.991Z,7.27
2023-02-26T13:18:52.704Z,6.80
2023-02-26T13:21:31.193Z,7.53
2023-02-26T13:24:06.249Z,7.18
2023-02-26T13:26:35.803Z,6.37
2023-02-26T13:29:04.781Z,6.33
2023-02-26T13:31:49.612Z,5.68
2023-02-26T13:34:35.177Z,10.77
2023-02-26T13:37:04.267Z,12.23
2023-02-26T13:39:31.362Z,8.50
2023-02-26T13:42:20.114Z,7.17
2023-02-26T13:47:42.853Z,8.83
2023-02-26T13:50:12.948Z,11.60
2023-02-26T13:52:54.762Z,12.00
2023-02-26T13:55:42.995Z,27.33
2023-02-26T13:58:23.044Z,10.87
2023-02-26T14:01:08.757Z,8.03
2023-02-26T14:04:06.334Z,7.20
2023-02-26T14:06:39.121Z,9.63
2023-02-26T14:09:29.066Z,12.70
2023-02-26T14:12:01.196Z,11.17
2023-02-26T14:14:41.434Z,8.83
2023-02-26T14:17:08.642Z,10.10
2023-02-26T14:19:53.489Z,10.50
2023-02-26T14:22:35.022Z,7.77
2023-02-26T14:25:20.063Z,23.40
2023-02-26T14:27:48.992Z,19.33
2023-02-26T14:30:34.048Z,15.10
2023-02-26T14:33:01.528Z,14.17
2023-02-26T14:35:32.203Z,15.30
2023-02-26T14:38:27.972Z,9.70
2023-02-26T14:41:09.000Z,11.20
2023-02-26T14:43:45.323Z,21.77
2023-02-26T14:46:13.049Z,13.37
2023-02-26T14:48:40.257Z,9.20
2023-02-26T14:51:19.295Z,7.70
2023-02-26T14:53:58.899Z,6.80
2023-02-26T14:56:54.274Z,10.93
2023-02-26T14:59:41.798Z,10.57
2023-02-26T15:02:18.641Z,7.37
2023-02-26T15:05:01.651Z,6.73
2023-02-26T15:07:48.019Z,12.33
2023-02-26T15:10:33.559Z,11.40
2023-02-26T15:13:25.103Z,11.27
2023-02-26T15:16:18.722Z,9.87
2023-02-26T15:18:53.226Z,13.37
2023-02-26T15:21:32.567Z,10.27
2023-02-26T15:26:34.148Z,10.17
2023-02-26T15:29:05.698Z,7.67
2023-02-26T15:31:41.650Z,8.80
2023-02-26T15:34:14.221Z,9.23
2023-02-26T15:36:53.255Z,9.53
2023-02-26T15:41:52.693Z,5.13
2023-02-26T15:44:27.243Z,5.97
2023-02-26T15:47:01.532Z,5.53
2023-02-26T15:49:38.943Z,6.23
2023-02-26T15:52:08.783Z,8.80
2023-02-26T15:54:45.273Z,13.47
2023-02-26T15:57:14.822Z,22.10
2023-02-26T15:59:48.368Z,8.07
2023-02-26T16:02:19.994Z,14.73
2023-02-26T16:04:47.202Z,16.90
2023-02-26T16:07:14.764Z,17.10
2023-02-26T16:09:50.066Z,15.30
2023-02-26T16:12:34.516Z,15.03
2023-02-26T16:15:07.037Z,31.47
2023-02-26T16:17:39.508Z,24.97
2023-02-26T16:20:14.636Z,19.60
2023-02-26T16:23:09.279Z,15.80
2023-02-26T16:25:50.710Z,13.60
2023-02-26T16:28:29.974Z,17.57
2023-02-26T16:30:59.872Z,17.35
2023-02-26T16:33:31.950Z,26.27
2023-02-26T16:36:18.296Z,23.60
2023-02-26T16:38:49.950Z,26.17
2023-02-26T16:41:22.895Z,21.17
2023-02-26T16:43:57.852Z,17.00
2023-02-26T16:46:46.520Z,21.67
2023-02-26T16:51:53.760Z,17.87
2023-02-26T16:54:26.458Z,19.27
2023-02-26T16:56:59.992Z,23.50
2023-02-26T16:59:31.729Z,20.47
2023-02-26T17:02:03.369Z,18.30
2023-02-26T17:04:35.818Z,21.43
2023-02-26T17:07:14.723Z,20.40
2023-02-26T17:09:49.374Z,21.93
2023-02-26T17:12:28.639Z,27.00
2023-02-26T17:14:58.168Z,28.70
2023-02-26T17:17:25.691Z,27.80
2023-02-26T17:19:53.200Z,25.67
2023-02-26T17:22:26.345Z,20.07
2023-02-26T17:24:53.843Z,24.20
2023-02-26T17:27:29.844Z,23.57
2023-02-26T17:29:58.120Z,29.37
2023-02-26T17:32:31.420Z,24.67
2023-02-26T17:34:59.381Z,27.20
2023-02-26T17:37:33.716Z,27.90
2023-02-26T17:40:00.955Z,26.73
2023-02-26T17:42:27.949Z,21.50
2023-02-26T17:44:56.864Z,22.60
2023-02-26T17:47:26.275Z,18.90
2023-02-26T17:49:54.391Z,18.03
2023-02-26T17:52:21.378Z,15.90
2023-02-26T17:54:48.783Z,16.73
2023-02-26T17:57:22.221Z,14.90
2023-02-26T18:12:19.471Z,18.30
2023-02-26T18:14:46.924Z,15.43
2023-02-26T18:17:26.065Z,16.37
2023-02-26T18:19:53.639Z,18.20
2023-02-26T18:22:25.303Z,18.93
2023-02-26T18:24:53.682Z,24.03
2023-02-26T18:27:23.708Z,27.10
2023-02-26T18:29:51.454Z,29.00
2023-02-26T18:32:21.761Z,28.00
2023-02-26T18:34:50.934Z,20.87
2023-02-26T18:37:20.943Z,18.38
2023-02-26T18:39:48.437Z,15.67
2023-02-26T18:42:24.243Z,15.83
2023-02-26T18:44:53.264Z,16.90
2023-02-26T18:47:22.477Z,17.35
2023-02-26T18:49:51.101Z,22.33
2023-02-26T18:52:18.417Z,14.25
2023-02-26T18:54:45.736Z,16.57
2023-02-26T18:57:12.655Z,15.03
2023-02-26T18:59:40.318Z,13.67
2023-02-26T19:02:07.899Z,17.23
2023-02-26T19:04:35.252Z,17.00
2023-02-26T19:07:03.798Z,13.33
2023-02-26T19:09:31.024Z,11.32
2023-02-26T19:11:58.529Z,11.87
2023-02-26T19:14:25.791Z,11.47
2023-02-26T19:16:53.332Z,10.97
2023-02-26T19:19:21.251Z,11.43
2023-02-26T19:21:48.927Z,11.70
2023-02-26T19:24:16.564Z,11.00
2023-02-26T19:26:44.385Z,10.60
2023-02-26T19:29:15.796Z,10.02
2023-02-26T19:31:43.767Z,11.13
2023-02-26T19:34:12.039Z,9.43
2023-02-26T19:36:40.687Z,10.63
2023-02-26T19:39:08.342Z,9.87
2023-02-26T19:41:35.270Z,8.23
2023-02-26T19:44:02.438Z,10.00
2023-02-26T19:46:29.393Z,8.73
2023-02-26T19:48:56.600Z,8.77
2023-02-26T19:51:23.523Z,8.03
2023-02-26T19:53:50.761Z,9.10
2023-02-26T19:56:17.661Z,10.53
2023-02-26T19:58:44.887Z,11.10
2023-02-26T20:01:11.849Z,12.33
2023-02-26T20:03:39.021Z,9.80
2023-02-26T20:06:08.408Z,9.50
2023-02-26T20:08:35.648Z,9.17
2023-02-26T20:11:02.717Z,8.13
2023-02-26T20:13:30.973Z,8.00
2023-02-26T20:15:58.829Z,9.07
2023-02-26T20:18:28.710Z,10.40
2023-02-26T20:20:55.982Z,10.60
2023-02-26T20:23:23.305Z,9.83
2023-02-26T20:25:50.555Z,10.70
2023-02-26T20:28:18.554Z,8.73
2023-02-26T20:30:46.389Z,10.60
2023-02-26T20:33:14.465Z,12.97
2023-02-26T20:35:46.047Z,13.10
2023-02-26T20:38:14.768Z,12.03
2023-02-26T20:40:41.998Z,10.07
2023-02-26T20:43:09.636Z,13.83
2023-02-26T20:45:37.990Z,12.40
2023-02-26T20:48:06.817Z,10.40
2023-02-26T20:50:35.045Z,11.75
2023-02-26T20:53:03.708Z,13.32
2023-02-26T20:55:30.620Z,11.18
2023-02-26T20:57:57.759Z,9.93
2023-02-26T21:00:25.126Z,8.67
2023-02-26T21:02:52.521Z,9.10
2023-02-26T21:05:19.652Z,9.13
2023-02-26T21:07:46.949Z,10.70
2023-02-26T21:10:16.079Z,12.73
2023-02-26T21:12:43.395Z,13.30
2023-02-26T21:15:12.370Z,12.50
2023-02-26T21:17:41.457Z,11.13
2023-02-26T21:20:12.031Z,9.20
2023-02-26T21:22:39.699Z,9.47
2023-02-26T21:25:07.681Z,8.13
2023-02-26T21:27:37.042Z,9.40
2023-02-26T21:30:18.434Z,9.30
2023-02-26T21:32:48.218Z,8.03
2023-02-26T21:35:17.048Z,8.87
2023-02-26T21:37:48.885Z,9.00
2023-02-26T21:40:16.456Z,8.40
2023-02-26T21:42:44.136Z,9.90
2023-02-26T21:45:11.501Z,7.03
2023-02-26T21:47:39.060Z,7.23
2023-02-26T21:50:07.640Z,8.57
2023-02-26T21:52:35.028Z,8.52
2023-02-26T21:55:02.313Z,7.10
2023-02-26T21:57:30.241Z,6.87
2023-02-26T21:59:57.287Z,7.13
2023-02-26T22:02:24.808Z,7.27
2023-02-26T22:04:51.824Z,7.97
2023-02-26T22:07:19.926Z,7.40
2023-02-26T22:09:48.992Z,6.53
2023-02-26T22:12:17.284Z,6.13
2023-02-26T22:14:44.381Z,6.20
2023-02-26T22:17:11.974Z,7.03
2023-02-26T22:19:38.816Z,8.17
2023-02-26T22:22:06.559Z,8.93
2023-02-26T22:24:33.494Z,7.53
2023-02-26T22:27:00.700Z,8.47
2023-02-26T22:29:27.613Z,7.73
2023-02-26T22:31:56.720Z,7.70
2023-02-26T22:34:23.749Z,7.03
2023-02-26T22:36:52.255Z,7.50
2023-02-26T22:39:20.475Z,7.90
2023-02-26T22:41:47.967Z,7.70
2023-02-26T22:44:15.273Z,6.33
2023-02-26T22:46:42.706Z,7.20
2023-02-26T22:49:09.616Z,7.17
2023-02-26T22:51:36.880Z,6.87
2023-02-26T22:54:04.020Z,6.57
2023-02-26T22:56:31.781Z,7.23
2023-02-26T22:58:58.788Z,6.53
2023-02-26T23:01:26.434Z,5.07
2023-02-26T23:03:53.373Z,6.33
2023-02-26T23:06:20.622Z,5.37
2023-02-26T23:08:47.685Z,5.73
2023-02-26T23:11:14.896Z,5.87
2023-02-26T23:13:41.767Z,5.23
2023-02-26T23:16:10.922Z,5.70
2023-02-26T23:18:39.480Z,5.32
2023-02-26T23:21:08.142Z,5.22
2023-02-26T23:23:35.204Z,5.60
2023-02-26T23:26:02.718Z,5.67
2023-02-26T23:28:29.955Z,5.87
2023-02-26T23:30:57.180Z,5.30
2023-02-26T23:33:24.150Z,5.17
2023-02-26T23:35:51.455Z,5.03
2023-02-26T23:38:18.354Z,5.47
2023-02-26T23:40:45.571Z,5.47
2023-02-26T23:43:12.449Z,4.80
2023-02-26T23:45:39.750Z,4.93
2023-02-26T23:48:07.045Z,5.23
2023-02-26T23:50:34.330Z,5.07
2023-02-26T23:53:01.460Z,4.80
2023-02-26T23:55:28.707Z,5.53
2023-02-26T23:57:55.588Z,5.10
